Time;durP1;ratioP1;P1;durP2;ratioP2;P2;SDS_P1;SDS_P2;PMS_P1;PMS_P2;Temp;Humidity;BMP_temperature;BMP_pressure;BME280_temperature;BME280_humidity;BME280_pressure;Samples;Min_cycle;Max_cycle;Signal;HPM_P1;HPM_P2
2022/05/06 00:02:25;;;;;;;32.30;9.05;;;;;;;;;;5007133;28;20112;-69
2022/05/06 00:04:51;;;;;;;23.65;8.73;;;;;;;;;;5030061;28;20087;-71
2022/05/06 00:07:17;;;;;;;14.40;8.57;;;;;;;;;;5008454;28;20221;-70
2022/05/06 00:09:44;;;;;;;16.77;8.45;;;;;;;;;;5024973;28;20026;-70
2022/05/06 00:12:10;;;;;;;35.20;8.93;;;;;;;;;;5024575;28;20029;-70
2022/05/06 00:14:36;;;;;;;42.65;8.57;;;;;;;;;;5027997;28;20018;-70
2022/05/06 00:17:04;;;;;;;39.90;7.80;;;;;;;;;;5026774;28;20032;-70
2022/05/06 00:19:30;;;;;;;28.65;8.50;;;;;;;;;;5026902;28;20060;-70
2022/05/06 00:21:55;;;;;;;15.90;8.05;;;;;;;;;;5024733;28;20060;-70
2022/05/06 00:24:20;;;;;;;25.92;7.95;;;;;;;;;;5023405;28;20614;-69
2022/05/06 00:26:46;;;;;;;21.70;8.05;;;;;;;;;;5026412;28;20045;-71
2022/05/06 00:29:11;;;;;;;24.30;7.72;;;;;;;;;;5025697;28;20032;-71
2022/05/06 00:31:36;;;;;;;57.72;7.88;;;;;;;;;;5028121;28;20510;-69
2022/05/06 00:34:02;;;;;;;59.85;8.48;;;;;;;;;;5024737;28;20101;-71
2022/05/06 00:36:27;;;;;;;29.45;7.60;;;;;;;;;;5024044;28;20032;-70
2022/05/06 00:38:52;;;;;;;34.83;7.72;;;;;;;;;;5025355;28;20022;-69
2022/05/06 00:41:18;;;;;;;28.42;8.68;;;;;;;;;;5022425;28;20029;-70
2022/05/06 00:43:43;;;;;;;18.52;7.65;;;;;;;;;;5026606;28;20029;-70
2022/05/06 00:46:11;;;;;;;62.75;7.93;;;;;;;;;;5025309;28;20523;-69
2022/05/06 00:48:37;;;;;;;9.75;7.00;;;;;;;;;;5026787;28;20045;-70
2022/05/06 00:51:03;;;;;;;12.32;7.13;;;;;;;;;;5024942;28;20115;-69
2022/05/06 00:53:29;;;;;;;8.88;6.57;;;;;;;;;;5024891;28;20021;-69
2022/05/06 00:55:56;;;;;;;9.73;6.15;;;;;;;;;;5023620;28;20036;-69
2022/05/06 00:58:23;;;;;;;9.88;6.05;;;;;;;;;;5025529;28;20347;-69
2022/05/06 01:00:49;;;;;;;10.13;6.28;;;;;;;;;;5026898;28;20038;-70
2022/05/06 01:03:14;;;;;;;18.48;6.28;;;;;;;;;;5024418;28;20080;-71
2022/05/06 01:05:39;;;;;;;12.55;7.18;;;;;;;;;;5024513;28;20220;-69
2022/05/06 01:08:06;;;;;;;37.13;6.57;;;;;;;;;;5022281;28;20479;-70
2022/05/06 01:10:31;;;;;;;22.38;6.88;;;;;;;;;;5006373;28;20022;-70
2022/05/06 01:12:56;;;;;;;47.33;6.72;;;;;;;;;;5024046;28;20017;-70
2022/05/06 01:15:26;;;;;;;9.13;6.07;;;;;;;;;;5023368;28;20121;-70
2022/05/06 01:17:52;;;;;;;27.52;6.88;;;;;;;;;;5026261;28;20048;-69
2022/05/06 01:20:18;;;;;;;23.45;6.63;;;;;;;;;;5024756;28;20689;-71
2022/05/06 01:22:47;;;;;;;12.65;6.38;;;;;;;;;;5023584;28;20083;-71
2022/05/06 01:25:12;;;;;;;32.55;5.65;;;;;;;;;;5024917;28;20021;-71
2022/05/06 01:27:40;;;;;;;35.08;5.70;;;;;;;;;;5023558;28;20366;-70
2022/05/06 01:30:06;;;;;;;23.30;6.03;;;;;;;;;;5023689;28;20013;-70
2022/05/06 01:32:34;;;;;;;15.05;5.60;;;;;;;;;;5023337;28;20029;-70
2022/05/06 01:35:00;;;;;;;10.80;5.78;;;;;;;;;;5024089;28;20574;-70
2022/05/06 01:37:27;;;;;;;39.30;5.93;;;;;;;;;;5021627;28;20138;-70
2022/05/06 01:39:55;;;;;;;65.10;6.88;;;;;;;;;;5022506;28;20642;-72
2022/05/06 01:42:22;;;;;;;15.27;6.15;;;;;;;;;;5020298;28;20044;-71
2022/05/06 01:44:47;;;;;;;26.35;7.45;;;;;;;;;;5026407;28;20013;-71
2022/05/06 01:47:19;;;;;;;28.30;5.70;;;;;;;;;;5006283;28;20029;-71
2022/05/06 01:49:45;;;;;;;16.30;5.35;;;;;;;;;;5021157;28;20119;-72
2022/05/06 01:52:14;;;;;;;8.80;5.97;;;;;;;;;;5021762;28;20069;-70
2022/05/06 01:54:40;;;;;;;9.90;5.82;;;;;;;;;;5022693;28;20747;-72
2022/05/06 01:57:05;;;;;;;17.38;6.22;;;;;;;;;;5004487;28;20040;-72
2022/05/06 01:59:31;;;;;;;25.98;5.60;;;;;;;;;;5022182;28;20032;-71
2022/05/06 02:01:56;;;;;;;13.68;5.80;;;;;;;;;;5023561;28;20503;-71
2022/05/06 02:07:05;;;;;;;8.73;5.35;;;;;;;;;;5019918;28;20041;-71
2022/05/06 02:09:30;;;;;;;12.98;6.07;;;;;;;;;;5019323;28;20771;-71
2022/05/06 02:11:56;;;;;;;9.27;5.57;;;;;;;;;;5021855;28;20116;-71
2022/05/06 02:14:21;;;;;;;7.85;5.55;;;;;;;;;;5022438;28;20095;-70
2022/05/06 02:16:46;;;;;;;40.22;5.90;;;;;;;;;;5023717;28;20108;-71
2022/05/06 02:19:13;;;;;;;9.63;5.15;;;;;;;;;;5024167;28;20022;-72
2022/05/06 02:21:39;;;;;;;9.65;5.90;;;;;;;;;;5003544;28;20325;-71
2022/05/06 02:24:04;;;;;;;15.80;5.47;;;;;;;;;;5003806;28;20044;-72
2022/05/06 02:26:29;;;;;;;10.43;5.57;;;;;;;;;;5017087;28;20470;-70
2022/05/06 02:28:55;;;;;;;24.77;6.38;;;;;;;;;;5023094;28;20033;-72
2022/05/06 02:34:04;;;;;;;17.52;4.95;;;;;;;;;;5023932;28;20032;-71
2022/05/06 02:36:29;;;;;;;21.23;5.38;;;;;;;;;;5019006;28;20944;-72
2022/05/06 02:38:55;;;;;;;10.60;5.63;;;;;;;;;;5021142;28;20472;-71
2022/05/06 02:41:20;;;;;;;15.95;5.80;;;;;;;;;;5018752;28;20033;-72
2022/05/06 02:43:46;;;;;;;32.40;6.32;;;;;;;;;;5022240;28;20098;-71
2022/05/06 02:46:11;;;;;;;10.80;6.45;;;;;;;;;;5021900;28;20108;-72
2022/05/06 02:48:36;;;;;;;12.68;6.80;;;;;;;;;;5020832;28;20490;-72
2022/05/06 02:51:02;;;;;;;15.10;6.53;;;;;;;;;;5019287;28;20025;-71
2022/05/06 02:53:27;;;;;;;25.55;7.13;;;;;;;;;;5019927;28;20025;-71
2022/05/06 02:55:52;;;;;;;34.65;6.68;;;;;;;;;;5003695;28;20032;-73
2022/05/06 02:58:18;;;;;;;72.72;7.53;;;;;;;;;;5021098;28;20418;-71
2022/05/06 03:00:43;;;;;;;88.88;8.05;;;;;;;;;;5021177;28;20396;-72
2022/05/06 03:03:08;;;;;;;13.45;6.60;;;;;;;;;;5021057;28;20287;-72
2022/05/06 03:05:34;;;;;;;106.15;7.32;;;;;;;;;;5019596;28;20025;-72
2022/05/06 03:07:59;;;;;;;12.32;6.75;;;;;;;;;;5020978;28;20055;-71
2022/05/06 03:10:26;;;;;;;89.53;7.25;;;;;;;;;;5020170;28;20052;-72
2022/05/06 03:12:58;;;;;;;91.90;7.95;;;;;;;;;;5004935;28;20029;-71
2022/05/06 03:15:24;;;;;;;61.83;7.20;;;;;;;;;;5023077;28;20373;-72
2022/05/06 03:17:49;;;;;;;19.77;5.75;;;;;;;;;;5024659;28;20074;-72
2022/05/06 03:20:14;;;;;;;18.05;6.63;;;;;;;;;;5020474;28;20025;-72
2022/05/06 03:22:41;;;;;;;16.88;5.70;;;;;;;;;;5020472;28;20102;-73
2022/05/06 03:25:07;;;;;;;35.20;6.65;;;;;;;;;;5023833;28;20101;-73
2022/05/06 03:30:17;;;;;;;23.45;5.43;;;;;;;;;;5024983;28;20683;-73
2022/05/06 03:32:42;;;;;;;9.73;4.50;;;;;;;;;;5004271;28;20739;-72
2022/05/06 03:35:08;;;;;;;14.90;5.65;;;;;;;;;;5019667;28;20108;-73
2022/05/06 03:37:36;;;;;;;9.82;5.13;;;;;;;;;;5020415;28;20033;-71
2022/05/06 03:40:02;;;;;;;13.68;5.35;;;;;;;;;;5010066;28;20045;-72
2022/05/06 03:42:27;;;;;;;20.77;5.72;;;;;;;;;;5023816;28;20455;-71
2022/05/06 03:44:52;;;;;;;12.77;5.47;;;;;;;;;;5026767;28;20025;-73
2022/05/06 03:47:17;;;;;;;16.70;5.40;;;;;;;;;;5026148;28;20108;-73
2022/05/06 03:49:43;;;;;;;25.13;6.75;;;;;;;;;;5025677;28;20025;-71
2022/05/06 03:52:08;;;;;;;10.30;5.90;;;;;;;;;;5008129;28;20097;-72
2022/05/06 03:54:33;;;;;;;11.15;6.93;;;;;;;;;;5023969;28;20340;-72
2022/05/06 03:56:59;;;;;;;6.93;5.50;;;;;;;;;;5008448;28;20053;-72
2022/05/06 03:59:24;;;;;;;29.17;5.82;;;;;;;;;;5024700;28;20120;-73
2022/05/06 04:01:49;;;;;;;9.23;5.80;;;;;;;;;;5010689;28;20021;-73
2022/05/06 04:04:15;;;;;;;10.65;5.80;;;;;;;;;;5027163;28;20116;-73
2022/05/06 04:06:40;;;;;;;50.03;6.00;;;;;;;;;;5020844;28;20840;-73
2022/05/06 04:09:05;;;;;;;33.88;5.72;;;;;;;;;;5022760;28;20368;-72
2022/05/06 04:11:30;;;;;;;11.05;5.82;;;;;;;;;;5006167;28;20036;-73
2022/05/06 04:13:56;;;;;;;8.60;5.45;;;;;;;;;;5026891;28;20026;-71
2022/05/06 04:16:24;;;;;;;26.58;6.05;;;;;;;;;;5027118;28;20060;-72
2022/05/06 04:18:49;;;;;;;11.63;5.53;;;;;;;;;;5008751;28;20364;-72
2022/05/06 04:23:59;;;;;;;13.70;5.63;;;;;;;;;;5023181;28;20028;-72
2022/05/06 04:26:24;;;;;;;9.52;5.80;;;;;;;;;;5024018;28;20055;-72
2022/05/06 04:28:51;;;;;;;10.48;5.93;;;;;;;;;;5009489;28;20081;-72
2022/05/06 04:31:17;;;;;;;16.52;6.88;;;;;;;;;;5025381;28;20348;-72
2022/05/06 04:33:42;;;;;;;16.10;6.63;;;;;;;;;;5023575;28;20440;-73
2022/05/06 04:36:09;;;;;;;15.65;6.15;;;;;;;;;;5021433;28;20717;-72
2022/05/06 04:38:35;;;;;;;26.30;6.40;;;;;;;;;;5005953;28;20464;-73
2022/05/06 04:41:01;;;;;;;19.35;6.15;;;;;;;;;;5024883;28;20480;-73
2022/05/06 04:43:27;;;;;;;10.52;6.38;;;;;;;;;;5025419;28;20103;-72
2022/05/06 04:45:53;;;;;;;6.97;5.03;;;;;;;;;;5005065;28;20021;-73
2022/05/06 04:48:18;;;;;;;11.63;6.38;;;;;;;;;;5024540;28;20025;-72
2022/05/06 04:50:47;;;;;;;17.00;5.93;;;;;;;;;;5020798;28;20833;-72
2022/05/06 04:53:12;;;;;;;8.90;5.93;;;;;;;;;;5024371;28;20021;-72
2022/05/06 04:55:42;;;;;;;11.50;5.95;;;;;;;;;;5021543;28;20307;-72
2022/05/06 04:58:07;;;;;;;8.55;6.45;;;;;;;;;;5021138;28;20024;-72
2022/05/06 05:00:33;;;;;;;8.10;5.82;;;;;;;;;;5020292;28;20361;-72
2022/05/06 05:02:58;;;;;;;24.30;6.57;;;;;;;;;;5024841;28;20396;-72
2022/05/06 05:05:34;;;;;;;10.80;6.32;;;;;;;;;;5020238;28;20037;-74
2022/05/06 05:07:59;;;;;;;11.45;6.45;;;;;;;;;;5023512;28;20048;-73
2022/05/06 05:10:27;;;;;;;10.05;6.88;;;;;;;;;;5023480;28;20395;-72
2022/05/06 05:12:53;;;;;;;12.48;7.15;;;;;;;;;;5023974;28;20143;-73
2022/05/06 05:15:18;;;;;;;25.25;7.85;;;;;;;;;;5028617;28;20037;-72
2022/05/06 05:17:44;;;;;;;41.08;7.47;;;;;;;;;;5024829;28;20083;-73
2022/05/06 05:20:10;;;;;;;11.43;7.35;;;;;;;;;;5024606;28;20135;-73
2022/05/06 05:22:38;;;;;;;17.65;7.30;;;;;;;;;;5023147;28;20025;-72
2022/05/06 05:25:04;;;;;;;17.30;8.07;;;;;;;;;;5026178;28;20054;-71
2022/05/06 05:27:30;;;;;;;27.05;8.02;;;;;;;;;;5024267;28;20045;-71
2022/05/06 05:29:56;;;;;;;16.77;8.88;;;;;;;;;;5025094;28;20029;-72
2022/05/06 05:32:21;;;;;;;10.82;8.43;;;;;;;;;;5025589;28;20049;-71
2022/05/06 05:34:46;;;;;;;20.73;8.90;;;;;;;;;;5025134;28;20033;-72
2022/05/06 05:37:12;;;;;;;13.30;8.70;;;;;;;;;;5023921;28;20021;-72
2022/05/06 05:39:37;;;;;;;13.57;7.57;;;;;;;;;;5022123;28;20039;-72
2022/05/06 05:42:03;;;;;;;12.57;8.82;;;;;;;;;;5024728;28;20474;-72
2022/05/06 05:50:15;;;;;;;11.25;8.25;;;;;;;;;;5025451;28;20503;-72
2022/05/06 05:52:40;;;;;;;11.60;8.98;;;;;;;;;;5021108;28;20033;-72
2022/05/06 05:55:06;;;;;;;10.10;7.75;;;;;;;;;;5023487;28;20025;-72
2022/05/06 05:57:31;;;;;;;17.52;8.35;;;;;;;;;;5004739;28;20036;-72
2022/05/06 05:59:57;;;;;;;16.58;9.00;;;;;;;;;;5006318;28;20636;-72
2022/05/06 06:02:23;;;;;;;12.27;8.65;;;;;;;;;;5022862;28;20033;-73
2022/05/06 06:04:48;;;;;;;18.38;8.68;;;;;;;;;;5023259;28;20017;-71
2022/05/06 06:07:14;;;;;;;14.00;9.30;;;;;;;;;;5021372;28;20052;-73
2022/05/06 06:09:39;;;;;;;11.60;9.15;;;;;;;;;;5020887;28;20033;-71
2022/05/06 06:12:05;;;;;;;14.95;9.60;;;;;;;;;;5021690;28;20025;-72
2022/05/06 06:14:32;;;;;;;14.75;9.93;;;;;;;;;;5023186;28;20026;-71
2022/05/06 06:16:58;;;;;;;12.73;10.07;;;;;;;;;;5019705;28;20405;-71
2022/05/06 06:19:23;;;;;;;12.23;10.02;;;;;;;;;;5021613;28;20052;-72
2022/05/06 06:21:49;;;;;;;12.60;10.23;;;;;;;;;;4999277;28;20034;-72
2022/05/06 06:24:14;;;;;;;17.63;10.73;;;;;;;;;;5020816;28;20044;-72
2022/05/06 06:26:39;;;;;;;13.38;11.13;;;;;;;;;;5018927;28;20095;-72
2022/05/06 06:29:05;;;;;;;13.38;11.48;;;;;;;;;;5023274;28;20079;-72
2022/05/06 06:31:32;;;;;;;11.88;9.82;;;;;;;;;;5021015;28;20032;-73
2022/05/06 06:34:00;;;;;;;14.23;10.63;;;;;;;;;;5019367;28;20370;-72
2022/05/06 06:36:26;;;;;;;12.45;11.15;;;;;;;;;;5019446;28;20021;-73
2022/05/06 06:38:52;;;;;;;14.52;12.05;;;;;;;;;;5025537;28;20082;-72
2022/05/06 06:41:17;;;;;;;14.63;12.00;;;;;;;;;;5019732;28;20145;-72
2022/05/06 06:43:42;;;;;;;12.68;11.02;;;;;;;;;;5020330;28;20029;-73
2022/05/06 06:46:07;;;;;;;14.88;11.63;;;;;;;;;;5023337;28;20419;-72
2022/05/06 06:48:34;;;;;;;13.55;12.13;;;;;;;;;;5005066;28;20025;-73
2022/05/06 06:50:59;;;;;;;15.82;12.43;;;;;;;;;;5001686;28;20021;-72
2022/05/06 06:53:24;;;;;;;13.93;12.18;;;;;;;;;;5020024;28;20029;-73
2022/05/06 06:55:50;;;;;;;13.70;11.38;;;;;;;;;;5001067;28;20044;-72
2022/05/06 06:58:16;;;;;;;14.90;11.75;;;;;;;;;;5020902;28;20125;-72
2022/05/06 07:00:44;;;;;;;14.27;11.73;;;;;;;;;;5004463;28;20029;-72
2022/05/06 07:03:13;;;;;;;13.02;11.63;;;;;;;;;;5004881;28;20079;-72
2022/05/06 07:11:52;;;;;;;12.95;11.57;;;;;;;;;;5000780;28;20041;-71
2022/05/06 07:13:52;;;;;;;13.48;11.52;;;;;;;;;;5022860;28;20036;-73
2022/05/06 07:16:17;;;;;;;13.57;11.68;;;;;;;;;;5021547;28;20022;-73
2022/05/06 07:18:43;;;;;;;13.55;10.65;;;;;;;;;;5018584;28;20021;-72
2022/05/06 07:21:08;;;;;;;11.80;10.57;;;;;;;;;;5018545;28;20187;-73
2022/05/06 07:23:33;;;;;;;12.93;10.68;;;;;;;;;;5021000;28;20491;-72
2022/05/06 07:25:58;;;;;;;11.23;9.98;;;;;;;;;;5017016;28;20391;-72
2022/05/06 07:28:23;;;;;;;11.88;10.65;;;;;;;;;;5022056;28;20279;-71
2022/05/06 07:30:49;;;;;;;12.32;11.02;;;;;;;;;;5021205;28;20064;-72
2022/05/06 07:33:14;;;;;;;12.15;10.70;;;;;;;;;;5023889;28;20132;-73
2022/05/06 07:35:40;;;;;;;13.20;10.10;;;;;;;;;;5019461;28;20138;-71
2022/05/06 07:38:05;;;;;;;12.27;10.13;;;;;;;;;;5020114;28;20032;-72
2022/05/06 07:40:32;;;;;;;11.90;10.35;;;;;;;;;;5021525;28;20232;-71
2022/05/06 07:42:57;;;;;;;10.32;9.23;;;;;;;;;;5004728;28;20146;-72
2022/05/06 07:45:22;;;;;;;11.48;8.75;;;;;;;;;;5023708;28;20033;-72
2022/05/06 07:47:48;;;;;;;14.48;11.20;;;;;;;;;;5005635;28;20037;-72
2022/05/06 07:50:14;;;;;;;13.00;11.05;;;;;;;;;;5022292;28;20280;-72
2022/05/06 07:52:41;;;;;;;12.50;11.18;;;;;;;;;;5019736;28;20029;-72
2022/05/06 07:55:07;;;;;;;13.68;11.40;;;;;;;;;;5004273;28;20802;-73
2022/05/06 07:57:32;;;;;;;11.60;10.40;;;;;;;;;;5021820;28;20017;-72
2022/05/06 07:59:58;;;;;;;10.70;9.20;;;;;;;;;;5022036;28;20029;-73
2022/05/06 08:05:07;;;;;;;11.77;10.57;;;;;;;;;;5021900;28;20036;-73
2022/05/06 08:07:34;;;;;;;15.43;10.93;;;;;;;;;;5022032;28;20026;-72
2022/05/06 08:09:59;;;;;;;13.13;11.30;;;;;;;;;;5004588;28;20511;-72
2022/05/06 08:12:25;;;;;;;16.73;12.82;;;;;;;;;;5019470;28;20116;-72
2022/05/06 08:14:51;;;;;;;14.82;11.30;;;;;;;;;;5022981;28;20018;-72
2022/05/06 08:17:17;;;;;;;14.70;12.50;;;;;;;;;;5022346;28;20100;-73
2022/05/06 08:19:45;;;;;;;15.50;11.82;;;;;;;;;;5023666;28;20105;-73
2022/05/06 08:22:11;;;;;;;14.10;11.48;;;;;;;;;;5019574;28;20397;-73
2022/05/06 08:24:36;;;;;;;15.48;11.50;;;;;;;;;;5024000;28;20055;-73
2022/05/06 08:27:01;;;;;;;13.48;11.02;;;;;;;;;;5023349;28;20046;-72
2022/05/06 08:29:28;;;;;;;14.07;11.27;;;;;;;;;;5025715;28;20091;-72
2022/05/06 08:31:53;;;;;;;12.70;10.18;;;;;;;;;;5024254;28;20129;-72
2022/05/06 08:34:19;;;;;;;12.63;11.00;;;;;;;;;;5027459;28;20482;-72
2022/05/06 08:36:46;;;;;;;13.10;11.70;;;;;;;;;;5023156;28;20080;-71
2022/05/06 08:39:12;;;;;;;12.75;10.52;;;;;;;;;;5023987;28;20021;-73
2022/05/06 08:41:37;;;;;;;13.63;10.90;;;;;;;;;;5023211;28;20032;-71
2022/05/06 08:52:36;;;;;;;12.02;10.63;;;;;;;;;;5025419;28;20136;-72
2022/05/06 08:55:02;;;;;;;11.00;9.52;;;;;;;;;;5023579;28;20005;-72
2022/05/06 08:57:29;;;;;;;11.48;9.65;;;;;;;;;;5006425;28;20032;-72
2022/05/06 08:59:54;;;;;;;14.50;10.98;;;;;;;;;;5025041;28;20379;-72
2022/05/06 09:02:20;;;;;;;11.50;10.32;;;;;;;;;;5009139;28;20033;-72
2022/05/06 09:04:47;;;;;;;11.52;9.70;;;;;;;;;;5010708;28;20469;-72
2022/05/06 09:07:14;;;;;;;11.90;10.13;;;;;;;;;;5023309;28;20025;-73
2022/05/06 09:09:40;;;;;;;12.43;9.95;;;;;;;;;;5023337;28;20129;-72
2022/05/06 09:17:47;;;;;;;10.93;9.57;;;;;;;;;;5026910;28;20591;-70
2022/05/06 09:20:20;;;;;;;10.95;9.55;;;;;;;;;;5006745;28;20021;-70
2022/05/06 09:22:47;;;;;;;9.48;7.93;;;;;;;;;;5023206;28;20184;-72
2022/05/06 09:25:32;;;;;;;9.75;8.77;;;;;;;;;;5008386;28;20048;-72
2022/05/06 09:27:57;;;;;;;12.10;9.13;;;;;;;;;;5023226;28;20053;-71
2022/05/06 09:30:22;;;;;;;10.80;9.00;;;;;;;;;;5026082;28;20032;-72
2022/05/06 09:32:49;;;;;;;10.32;8.98;;;;;;;;;;5024236;28;20048;-72
2022/05/06 09:35:15;;;;;;;10.93;8.45;;;;;;;;;;5006477;28;20377;-72
2022/05/06 09:37:41;;;;;;;10.38;8.85;;;;;;;;;;5022345;28;20029;-73
2022/05/06 09:40:12;;;;;;;9.95;8.95;;;;;;;;;;5025222;28;20121;-73
2022/05/06 09:42:45;;;;;;;8.85;7.95;;;;;;;;;;5022149;28;20496;-71
2022/05/06 09:45:11;;;;;;;11.30;9.60;;;;;;;;;;5024744;28;20230;-72
2022/05/06 09:47:37;;;;;;;9.27;8.35;;;;;;;;;;5025151;28;20101;-71
2022/05/06 09:50:04;;;;;;;9.32;8.43;;;;;;;;;;5004842;28;20392;-72
2022/05/06 09:52:30;;;;;;;10.82;9.48;;;;;;;;;;5023266;28;20022;-71
2022/05/06 09:54:56;;;;;;;9.55;8.15;;;;;;;;;;5005133;28;20048;-72
2022/05/06 09:57:22;;;;;;;9.23;8.35;;;;;;;;;;5026513;28;20558;-71
2022/05/06 09:59:47;;;;;;;9.93;8.93;;;;;;;;;;5023750;28;20026;-72
2022/05/06 10:02:13;;;;;;;10.00;8.88;;;;;;;;;;5021731;28;20308;-74
2022/05/06 10:04:38;;;;;;;10.30;9.30;;;;;;;;;;5023581;28;20127;-72
2022/05/06 10:07:09;;;;;;;8.82;7.43;;;;;;;;;;5022082;28;20113;-73
2022/05/06 10:09:38;;;;;;;10.15;8.02;;;;;;;;;;5021802;28;20043;-73
2022/05/06 10:12:05;;;;;;;12.57;9.05;;;;;;;;;;5017915;28;20037;-73
2022/05/06 10:14:30;;;;;;;9.85;8.23;;;;;;;;;;5022382;28;20392;-71
2022/05/06 10:16:56;;;;;;;10.10;9.07;;;;;;;;;;5023978;28;20029;-73
2022/05/06 10:19:44;;;;;;;9.70;8.70;;;;;;;;;;5023405;28;20021;-72
2022/05/06 10:22:09;;;;;;;12.32;9.38;;;;;;;;;;5018855;28;20025;-72
2022/05/06 10:24:41;;;;;;;9.85;8.82;;;;;;;;;;5022337;28;20037;-72
2022/05/06 10:27:23;;;;;;;11.30;9.13;;;;;;;;;;5020830;28;20026;-78
2022/05/06 10:32:54;;;;;;;11.40;8.38;;;;;;;;;;5023939;28;20113;-71
2022/05/06 10:35:36;;;;;;;9.35;8.45;;;;;;;;;;5022059;28;20025;-72
2022/05/06 10:38:14;;;;;;;11.68;9.88;;;;;;;;;;5020234;28;20022;-73
2022/05/06 10:40:47;;;;;;;10.70;8.85;;;;;;;;;;5021987;28;20036;-72
2022/05/06 10:43:32;;;;;;;9.70;8.50;;;;;;;;;;5023478;28;20394;-73
2022/05/06 10:45:58;;;;;;;10.45;9.45;;;;;;;;;;5020810;28;20075;-72
2022/05/06 10:48:24;;;;;;;10.02;8.90;;;;;;;;;;5005755;28;20036;-72
2022/05/06 10:50:49;;;;;;;9.65;8.65;;;;;;;;;;5021168;28;20029;-72
2022/05/06 10:53:34;;;;;;;9.95;8.95;;;;;;;;;;5018616;28;20052;-72
2022/05/06 10:55:59;;;;;;;9.65;8.05;;;;;;;;;;5002812;28;20504;-71
2022/05/06 10:58:25;;;;;;;9.82;8.82;;;;;;;;;;5022044;28;20120;-72
2022/05/06 11:00:58;;;;;;;9.40;8.52;;;;;;;;;;5005876;28;20112;-71
2022/05/06 11:03:24;;;;;;;8.88;7.88;;;;;;;;;;5021732;28;20025;-71
2022/05/06 11:05:51;;;;;;;12.40;10.93;;;;;;;;;;5004477;28;20041;-72
2022/05/06 11:08:21;;;;;;;11.90;10.02;;;;;;;;;;5019013;28;20036;-72
2022/05/06 11:10:46;;;;;;;10.93;9.85;;;;;;;;;;5003913;28;20547;-72
2022/05/06 11:13:11;;;;;;;10.82;9.73;;;;;;;;;;5022116;28;20025;-71
2022/05/06 11:15:37;;;;;;;10.43;9.43;;;;;;;;;;5021970;28;20489;-72
2022/05/06 11:18:06;;;;;;;9.70;8.73;;;;;;;;;;5022751;28;20104;-73
2022/05/06 11:20:33;;;;;;;11.43;10.23;;;;;;;;;;5021928;28;20076;-72
2022/05/06 11:23:01;;;;;;;10.20;9.20;;;;;;;;;;5019800;28;20029;-73
2022/05/06 11:25:29;;;;;;;11.48;10.23;;;;;;;;;;5019980;28;20025;-71
2022/05/06 11:27:55;;;;;;;11.25;10.15;;;;;;;;;;5021506;28;20420;-73
2022/05/06 11:30:22;;;;;;;9.88;8.45;;;;;;;;;;5021705;28;20437;-72
2022/05/06 11:32:49;;;;;;;9.80;8.32;;;;;;;;;;5022425;28;20066;-73
2022/05/06 11:35:18;;;;;;;9.52;8.18;;;;;;;;;;5019341;28;20026;-74
2022/05/06 11:37:43;;;;;;;10.55;9.48;;;;;;;;;;5020331;28;20481;-71
2022/05/06 11:42:49;;;;;;;10.60;9.60;;;;;;;;;;5020376;28;20021;-72
2022/05/06 11:48:09;;;;;;;9.10;8.20;;;;;;;;;;5020951;28;20031;-72
2022/05/06 11:50:36;;;;;;;9.90;8.90;;;;;;;;;;5017926;28;20029;-72
2022/05/06 11:53:09;;;;;;;10.50;9.48;;;;;;;;;;5019537;28;20018;-73
2022/05/06 11:55:37;;;;;;;9.20;8.40;;;;;;;;;;5026108;28;20496;-73
2022/05/06 11:58:07;;;;;;;9.80;8.80;;;;;;;;;;5026518;28;20392;-72
2022/05/06 12:00:32;;;;;;;11.13;8.70;;;;;;;;;;5025041;28;20025;-72
2022/05/06 12:03:04;;;;;;;10.55;9.45;;;;;;;;;;5025342;28;20075;-72
2022/05/06 12:05:29;;;;;;;11.52;10.38;;;;;;;;;;5022136;28;20025;-71
2022/05/06 12:07:55;;;;;;;9.13;8.00;;;;;;;;;;5023220;28;20036;-72
2022/05/06 12:10:28;;;;;;;10.35;9.27;;;;;;;;;;5006782;28;20036;-72
2022/05/06 12:12:54;;;;;;;8.27;7.53;;;;;;;;;;5009925;28;20033;-71
2022/05/06 12:15:21;;;;;;;9.75;8.75;;;;;;;;;;5026325;28;20104;-73
2022/05/06 12:17:47;;;;;;;9.00;7.95;;;;;;;;;;5009637;28;20021;-72
2022/05/06 12:20:31;;;;;;;8.65;7.70;;;;;;;;;;5024939;28;20500;-73
2022/05/06 12:22:58;;;;;;;8.40;7.40;;;;;;;;;;5026146;28;20056;-73
2022/05/06 12:25:42;;;;;;;9.10;8.20;;;;;;;;;;5023377;28;20144;-72
2022/05/06 12:28:14;;;;;;;8.77;7.88;;;;;;;;;;5024945;28;20110;-73
2022/05/06 12:30:39;;;;;;;8.40;7.60;;;;;;;;;;5027455;28;20028;-73
2022/05/06 12:33:06;;;;;;;7.93;6.00;;;;;;;;;;5026999;28;20078;-72
2022/05/06 12:35:52;;;;;;;7.53;6.82;;;;;;;;;;5024214;28;20021;-72
2022/05/06 12:38:17;;;;;;;8.40;7.53;;;;;;;;;;5024580;28;20495;-73
2022/05/06 12:40:43;;;;;;;8.77;7.88;;;;;;;;;;5011991;28;20037;-74
2022/05/06 12:43:09;;;;;;;8.52;7.60;;;;;;;;;;5011175;28;20117;-72
2022/05/06 12:45:35;;;;;;;8.32;7.60;;;;;;;;;;5027717;28;20029;-73
2022/05/06 12:50:44;;;;;;;8.48;7.57;;;;;;;;;;5025611;28;20116;-74
2022/05/06 12:53:11;;;;;;;7.82;7.05;;;;;;;;;;5022623;28;20143;-72
2022/05/06 12:55:36;;;;;;;8.05;7.20;;;;;;;;;;5020170;28;20468;-72
2022/05/06 12:58:01;;;;;;;8.82;8.02;;;;;;;;;;5023878;28;20025;-71
2022/05/06 13:00:26;;;;;;;8.60;7.80;;;;;;;;;;5020045;28;20026;-73
2022/05/06 13:02:52;;;;;;;8.73;7.82;;;;;;;;;;5025222;28;20399;-74
2022/05/06 13:05:18;;;;;;;8.70;7.80;;;;;;;;;;5022435;28;20059;-73
2022/05/06 13:07:43;;;;;;;8.73;7.93;;;;;;;;;;5021910;28;20066;-74
2022/05/06 13:10:10;;;;;;;8.82;7.13;;;;;;;;;;5006156;28;20026;-74
2022/05/06 13:12:35;;;;;;;9.43;7.30;;;;;;;;;;5020378;28;20025;-74
2022/05/06 13:15:00;;;;;;;8.25;7.55;;;;;;;;;;5025435;28;20426;-74
2022/05/06 13:17:26;;;;;;;9.27;8.38;;;;;;;;;;5021927;28;20426;-73
2022/05/06 13:19:58;;;;;;;7.93;6.90;;;;;;;;;;5007079;28;20433;-73
2022/05/06 13:22:26;;;;;;;10.85;8.27;;;;;;;;;;5004794;28;20036;-73
2022/05/06 13:24:52;;;;;;;10.52;9.20;;;;;;;;;;5005742;28;20064;-73
2022/05/06 13:27:17;;;;;;;9.98;8.63;;;;;;;;;;5003498;28;20077;-72
2022/05/06 13:29:42;;;;;;;11.55;7.10;;;;;;;;;;5025667;28;20064;-75
2022/05/06 13:32:07;;;;;;;8.50;7.60;;;;;;;;;;5029236;28;20109;-73
2022/05/06 13:34:33;;;;;;;8.70;7.80;;;;;;;;;;5004639;28;20429;-73
2022/05/06 13:36:58;;;;;;;9.93;7.70;;;;;;;;;;5023099;28;20443;-72
2022/05/06 13:39:23;;;;;;;9.00;7.65;;;;;;;;;;5021395;28;20566;-71
2022/05/06 13:41:48;;;;;;;9.35;8.02;;;;;;;;;;5020827;28;20403;-72
2022/05/06 13:44:14;;;;;;;10.73;8.37;;;;;;;;;;5020270;28;20538;-72
2022/05/06 13:46:39;;;;;;;8.73;7.93;;;;;;;;;;5004037;28;20738;-73
2022/05/06 13:49:04;;;;;;;8.82;8.02;;;;;;;;;;5024788;28;20021;-71
2022/05/06 13:51:30;;;;;;;9.52;7.28;;;;;;;;;;5019733;28;20030;-72
2022/05/06 13:53:56;;;;;;;8.55;7.65;;;;;;;;;;5019790;28;20029;-74
2022/05/06 13:59:06;;;;;;;8.77;7.70;;;;;;;;;;5024509;28;20072;-72
2022/05/06 14:01:32;;;;;;;7.60;6.90;;;;;;;;;;5020242;28;20053;-73
2022/05/06 14:03:57;;;;;;;8.68;7.78;;;;;;;;;;5025079;28;20064;-72
2022/05/06 14:06:23;;;;;;;9.88;7.63;;;;;;;;;;5023542;28;20022;-72
2022/05/06 14:08:48;;;;;;;10.52;7.65;;;;;;;;;;5021161;28;20036;-73
2022/05/06 14:11:16;;;;;;;8.40;6.18;;;;;;;;;;5022301;28;20048;-72
2022/05/06 14:13:42;;;;;;;8.38;7.57;;;;;;;;;;5022604;28;20025;-72
2022/05/06 14:16:07;;;;;;;8.45;7.65;;;;;;;;;;5027736;28;20143;-72
2022/05/06 14:18:32;;;;;;;9.02;8.13;;;;;;;;;;5025304;28;20022;-72
2022/05/06 14:20:58;;;;;;;10.05;8.30;;;;;;;;;;5020963;28;20033;-72
2022/05/06 14:23:24;;;;;;;8.65;7.18;;;;;;;;;;5020229;28;20036;-72
2022/05/06 14:25:49;;;;;;;7.88;7.18;;;;;;;;;;5023564;28;20255;-73
2022/05/06 14:28:16;;;;;;;8.50;7.32;;;;;;;;;;5024709;28;20041;-72
2022/05/06 14:30:43;;;;;;;7.55;6.68;;;;;;;;;;5007506;28;20051;-71
2022/05/06 14:33:08;;;;;;;7.47;6.82;;;;;;;;;;5024758;28;20021;-73
2022/05/06 14:35:36;;;;;;;8.00;6.47;;;;;;;;;;5002465;28;20451;-73
2022/05/06 14:38:02;;;;;;;7.68;6.80;;;;;;;;;;5022404;28;20017;-72
2022/05/06 14:40:29;;;;;;;8.40;6.80;;;;;;;;;;5020249;28;20049;-71
2022/05/06 14:42:55;;;;;;;11.63;7.25;;;;;;;;;;5005326;28;20557;-72
2022/05/06 14:45:24;;;;;;;7.72;6.43;;;;;;;;;;5023322;28;20439;-73
2022/05/06 14:47:50;;;;;;;10.68;7.00;;;;;;;;;;5023398;28;20029;-73
2022/05/06 14:50:16;;;;;;;8.93;7.30;;;;;;;;;;5020763;28;20554;-72
2022/05/06 14:52:42;;;;;;;8.65;6.50;;;;;;;;;;5021391;28;20033;-73
2022/05/06 14:55:08;;;;;;;7.50;6.63;;;;;;;;;;5023077;28;20036;-72
2022/05/06 14:57:35;;;;;;;7.68;6.50;;;;;;;;;;5020913;28;20025;-72
2022/05/06 15:00:01;;;;;;;7.00;6.30;;;;;;;;;;5022914;28;20395;-72
2022/05/06 15:02:26;;;;;;;6.65;6.00;;;;;;;;;;5026013;28;20511;-73
2022/05/06 15:05:01;;;;;;;6.47;5.88;;;;;;;;;;5007176;28;20387;-72
2022/05/06 15:07:36;;;;;;;6.80;6.20;;;;;;;;;;5019258;28;20480;-71
2022/05/06 15:10:02;;;;;;;7.03;6.35;;;;;;;;;;5005438;28;20029;-72
2022/05/06 15:12:28;;;;;;;7.18;6.25;;;;;;;;;;5020063;28;20025;-72
2022/05/06 15:14:54;;;;;;;7.63;6.82;;;;;;;;;;5023323;28;20013;-73
2022/05/06 15:17:20;;;;;;;6.70;6.10;;;;;;;;;;5021513;28;20422;-72
2022/05/06 15:19:46;;;;;;;6.53;5.85;;;;;;;;;;5021407;28;20423;-72
2022/05/06 15:22:12;;;;;;;8.40;6.38;;;;;;;;;;5019459;28;20022;-72